sensor_id;sensor_type;location;lat;lon;timestamp;P1;durP1;ratioP1;P2;durP2;ratioP2
52730;SDS011;38624;53.242;6.974;2024-02-28T00:00:28;67.28;;;24.88;;
52730;SDS011;38624;53.242;6.974;2024-02-28T00:02:54;80.37;;;27.10;;
52730;SDS011;38624;53.242;6.974;2024-02-28T00:05:20;71.40;;;26.00;;
52730;SDS011;38624;53.242;6.974;2024-02-28T00:07:46;67.57;;;25.37;;
52730;SDS011;38624;53.242;6.974;2024-02-28T00:10:13;60.92;;;25.25;;
52730;SDS011;38624;53.242;6.974;2024-02-28T00:12:39;63.67;;;23.73;;
52730;SDS011;38624;53.242;6.974;2024-02-28T00:15:05;65.30;;;24.90;;
52730;SDS011;38624;53.242;6.974;2024-02-28T00:17:39;69.00;;;26.93;;
52730;SDS011;38624;53.242;6.974;2024-02-28T00:20:06;67.63;;;26.27;;
52730;SDS011;38624;53.242;6.974;2024-02-28T00:22:32;70.45;;;25.55;;
52730;SDS011;38624;53.242;6.974;2024-02-28T00:24:58;77.40;;;26.97;;
52730;SDS011;38624;53.242;6.974;2024-02-28T00:27:26;71.73;;;26.80;;
52730;SDS011;38624;53.242;6.974;2024-02-28T00:29:52;66.97;;;25.90;;
52730;SDS011;38624;53.242;6.974;2024-02-28T00:32:18;73.35;;;26.77;;
52730;SDS011;38624;53.242;6.974;2024-02-28T00:34:44;67.63;;;26.83;;
52730;SDS011;38624;53.242;6.974;2024-02-28T00:37:10;71.00;;;25.33;;
52730;SDS011;38624;53.242;6.974;2024-02-28T00:39:36;66.40;;;25.77;;
52730;SDS011;38624;53.242;6.974;2024-02-28T00:42:02;74.10;;;25.67;;
52730;SDS011;38624;53.242;6.974;2024-02-28T00:44:28;61.97;;;25.23;;
52730;SDS011;38624;53.242;6.974;2024-02-28T00:46:54;64.97;;;26.07;;
52730;SDS011;38624;53.242;6.974;2024-02-28T00:49:21;74.22;;;26.33;;
52730;SDS011;38624;53.242;6.974;2024-02-28T00:51:47;64.27;;;25.50;;
52730;SDS011;38624;53.242;6.974;2024-02-28T00:54:13;63.43;;;24.07;;
52730;SDS011;38624;53.242;6.974;2024-02-28T00:56:39;58.07;;;24.17;;
52730;SDS011;38624;53.242;6.974;2024-02-28T00:59:05;65.37;;;25.93;;
52730;SDS011;38624;53.242;6.974;2024-02-28T01:01:35;59.53;;;24.87;;
52730;SDS011;38624;53.242;6.974;2024-02-28T01:04:01;63.20;;;25.70;;
52730;SDS011;38624;53.242;6.974;2024-02-28T01:06:27;64.10;;;24.80;;
52730;SDS011;38624;53.242;6.974;2024-02-28T01:08:53;62.53;;;24.33;;
52730;SDS011;38624;53.242;6.974;2024-02-28T01:11:19;61.40;;;24.48;;
52730;SDS011;38624;53.242;6.974;2024-02-28T01:13:45;63.53;;;25.17;;
52730;SDS011;38624;53.242;6.974;2024-02-28T01:16:12;69.67;;;25.47;;
52730;SDS011;38624;53.242;6.974;2024-02-28T01:18:38;70.90;;;27.07;;
52730;SDS011;38624;53.242;6.974;2024-02-28T01:21:04;60.13;;;24.83;;
52730;SDS011;38624;53.242;6.974;2024-02-28T01:23:30;60.58;;;24.73;;
52730;SDS011;38624;53.242;6.974;2024-02-28T01:25:56;57.92;;;25.27;;
52730;SDS011;38624;53.242;6.974;2024-02-28T01:28:22;59.43;;;24.27;;
52730;SDS011;38624;53.242;6.974;2024-02-28T01:30:48;57.07;;;24.60;;
52730;SDS011;38624;53.242;6.974;2024-02-28T01:33:14;57.67;;;25.17;;
52730;SDS011;38624;53.242;6.974;2024-02-28T01:35:40;55.83;;;24.60;;
52730;SDS011;38624;53.242;6.974;2024-02-28T01:38:06;56.10;;;23.63;;
52730;SDS011;38624;53.242;6.974;2024-02-28T01:40:32;59.83;;;24.43;;
52730;SDS011;38624;53.242;6.974;2024-02-28T01:43:02;61.47;;;25.27;;
52730;SDS011;38624;53.242;6.974;2024-02-28T01:45:29;58.30;;;24.73;;
52730;SDS011;38624;53.242;6.974;2024-02-28T01:47:55;60.00;;;23.73;;
52730;SDS011;38624;53.242;6.974;2024-02-28T01:50:21;58.70;;;24.87;;
52730;SDS011;38624;53.242;6.974;2024-02-28T01:52:47;56.57;;;24.47;;
52730;SDS011;38624;53.242;6.974;2024-02-28T01:55:13;61.57;;;25.27;;
52730;SDS011;38624;53.242;6.974;2024-02-28T01:57:39;68.87;;;27.13;;
52730;SDS011;38624;53.242;6.974;2024-02-28T02:00:06;60.67;;;25.30;;
52730;SDS011;38624;53.242;6.974;2024-02-28T02:02:35;61.80;;;24.37;;
52730;SDS011;38624;53.242;6.974;2024-02-28T02:05:01;58.60;;;25.53;;
52730;SDS011;38624;53.242;6.974;2024-02-28T02:07:27;63.33;;;25.27;;
52730;SDS011;38624;53.242;6.974;2024-02-28T02:09:53;58.93;;;24.40;;
52730;SDS011;38624;53.242;6.974;2024-02-28T02:12:19;62.97;;;26.17;;
52730;SDS011;38624;53.242;6.974;2024-02-28T02:14:49;66.20;;;25.17;;
52730;SDS011;38624;53.242;6.974;2024-02-28T02:17:15;62.37;;;25.87;;
52730;SDS011;38624;53.242;6.974;2024-02-28T02:19:41;63.78;;;25.33;;
52730;SDS011;38624;53.242;6.974;2024-02-28T02:22:08;66.50;;;25.70;;
52730;SDS011;38624;53.242;6.974;2024-02-28T02:24:34;62.20;;;24.40;;
52730;SDS011;38624;53.242;6.974;2024-02-28T02:27:01;55.60;;;24.30;;
52730;SDS011;38624;53.242;6.974;2024-02-28T02:29:29;59.90;;;25.30;;
52730;SDS011;38624;53.242;6.974;2024-02-28T02:31:56;59.78;;;24.83;;
52730;SDS011;38624;53.242;6.974;2024-02-28T02:34:22;64.17;;;25.23;;
52730;SDS011;38624;53.242;6.974;2024-02-28T02:36:48;65.03;;;26.17;;
52730;SDS011;38624;53.242;6.974;2024-02-28T02:39:14;64.33;;;25.67;;
52730;SDS011;38624;53.242;6.974;2024-02-28T02:41:40;65.63;;;25.83;;
52730;SDS011;38624;53.242;6.974;2024-02-28T02:44:10;65.43;;;25.83;;
52730;SDS011;38624;53.242;6.974;2024-02-28T02:46:36;61.77;;;25.77;;
52730;SDS011;38624;53.242;6.974;2024-02-28T02:49:02;60.70;;;25.83;;
52730;SDS011;38624;53.242;6.974;2024-02-28T02:51:28;60.43;;;23.80;;
52730;SDS011;38624;53.242;6.974;2024-02-28T02:53:54;60.37;;;25.33;;
52730;SDS011;38624;53.242;6.974;2024-02-28T02:56:20;57.35;;;25.38;;
52730;SDS011;38624;53.242;6.974;2024-02-28T02:58:46;63.77;;;25.77;;
52730;SDS011;38624;53.242;6.974;2024-02-28T03:01:12;61.20;;;25.13;;
52730;SDS011;38624;53.242;6.974;2024-02-28T03:03:38;60.60;;;24.77;;
52730;SDS011;38624;53.242;6.974;2024-02-28T03:06:04;60.50;;;24.67;;
52730;SDS011;38624;53.242;6.974;2024-02-28T03:08:30;60.53;;;24.73;;
52730;SDS011;38624;53.242;6.974;2024-02-28T03:10:57;56.70;;;23.90;;
52730;SDS011;38624;53.242;6.974;2024-02-28T03:13:23;56.77;;;23.67;;
52730;SDS011;38624;53.242;6.974;2024-02-28T03:15:49;54.30;;;23.15;;
52730;SDS011;38624;53.242;6.974;2024-02-28T03:18:15;53.00;;;24.57;;
52730;SDS011;38624;53.242;6.974;2024-02-28T03:20:41;52.85;;;23.15;;
52730;SDS011;38624;53.242;6.974;2024-02-28T03:23:08;55.80;;;24.17;;
52730;SDS011;38624;53.242;6.974;2024-02-28T03:25:34;60.83;;;25.33;;
52730;SDS011;38624;53.242;6.974;2024-02-28T03:28:00;68.70;;;26.83;;
52730;SDS011;38624;53.242;6.974;2024-02-28T03:30:26;63.72;;;26.98;;
52730;SDS011;38624;53.242;6.974;2024-02-28T03:32:52;59.30;;;25.65;;
52730;SDS011;38624;53.242;6.974;2024-02-28T03:35:18;60.87;;;24.83;;
52730;SDS011;38624;53.242;6.974;2024-02-28T03:37:45;60.38;;;25.92;;
52730;SDS011;38624;53.242;6.974;2024-02-28T03:40:11;55.50;;;24.97;;
52730;SDS011;38624;53.242;6.974;2024-02-28T03:42:37;55.38;;;23.73;;
52730;SDS011;38624;53.242;6.974;2024-02-28T03:47:30;59.27;;;24.33;;
52730;SDS011;38624;53.242;6.974;2024-02-28T03:49:56;57.53;;;24.87;;
52730;SDS011;38624;53.242;6.974;2024-02-28T03:52:22;67.93;;;25.97;;
52730;SDS011;38624;53.242;6.974;2024-02-28T03:54:48;68.28;;;26.23;;
52730;SDS011;38624;53.242;6.974;2024-02-28T03:57:15;65.97;;;25.47;;
52730;SDS011;38624;53.242;6.974;2024-02-28T03:59:41;70.63;;;27.97;;
52730;SDS011;38624;53.242;6.974;2024-02-28T04:02:07;72.23;;;27.23;;
52730;SDS011;38624;53.242;6.974;2024-02-28T04:04:33;68.30;;;26.03;;
52730;SDS011;38624;53.242;6.974;2024-02-28T04:06:59;57.73;;;25.87;;
52730;SDS011;38624;53.242;6.974;2024-02-28T04:09:25;59.10;;;24.85;;
52730;SDS011;38624;53.242;6.974;2024-02-28T04:11:51;62.65;;;26.33;;
52730;SDS011;38624;53.242;6.974;2024-02-28T04:14:17;57.83;;;24.53;;
52730;SDS011;38624;53.242;6.974;2024-02-28T04:16:43;60.00;;;24.53;;
52730;SDS011;38624;53.242;6.974;2024-02-28T04:19:10;57.38;;;24.98;;
52730;SDS011;38624;53.242;6.974;2024-02-28T04:21:36;53.17;;;24.45;;
52730;SDS011;38624;53.242;6.974;2024-02-28T04:24:03;59.92;;;24.63;;
52730;SDS011;38624;53.242;6.974;2024-02-28T04:26:29;55.53;;;24.05;;
52730;SDS011;38624;53.242;6.974;2024-02-28T04:28:55;54.40;;;23.50;;
52730;SDS011;38624;53.242;6.974;2024-02-28T04:31:21;60.43;;;25.63;;
52730;SDS011;38624;53.242;6.974;2024-02-28T04:33:47;58.60;;;25.38;;
52730;SDS011;38624;53.242;6.974;2024-02-28T04:36:13;57.10;;;25.23;;
52730;SDS011;38624;53.242;6.974;2024-02-28T04:38:41;61.73;;;25.20;;
52730;SDS011;38624;53.242;6.974;2024-02-28T04:41:07;58.00;;;25.53;;
52730;SDS011;38624;53.242;6.974;2024-02-28T04:43:33;61.30;;;25.50;;
52730;SDS011;38624;53.242;6.974;2024-02-28T04:46:00;57.67;;;25.40;;
52730;SDS011;38624;53.242;6.974;2024-02-28T04:50:52;60.73;;;24.67;;
52730;SDS011;38624;53.242;6.974;2024-02-28T04:53:18;66.18;;;26.23;;
52730;SDS011;38624;53.242;6.974;2024-02-28T04:55:45;59.87;;;25.03;;
52730;SDS011;38624;53.242;6.974;2024-02-28T04:58:11;62.28;;;24.00;;
52730;SDS011;38624;53.242;6.974;2024-02-28T05:00:37;56.57;;;23.90;;
52730;SDS011;38624;53.242;6.974;2024-02-28T05:03:03;60.03;;;24.47;;
52730;SDS011;38624;53.242;6.974;2024-02-28T05:05:29;60.50;;;25.50;;
52730;SDS011;38624;53.242;6.974;2024-02-28T05:07:55;56.90;;;24.97;;
52730;SDS011;38624;53.242;6.974;2024-02-28T05:10:21;62.07;;;25.70;;
52730;SDS011;38624;53.242;6.974;2024-02-28T05:12:47;58.40;;;24.53;;
52730;SDS011;38624;53.242;6.974;2024-02-28T05:15:13;53.00;;;23.03;;
52730;SDS011;38624;53.242;6.974;2024-02-28T05:17:39;61.37;;;25.90;;
52730;SDS011;38624;53.242;6.974;2024-02-28T05:20:05;57.03;;;24.97;;
52730;SDS011;38624;53.242;6.974;2024-02-28T05:22:31;64.72;;;25.75;;
52730;SDS011;38624;53.242;6.974;2024-02-28T05:24:57;57.07;;;24.63;;
52730;SDS011;38624;53.242;6.974;2024-02-28T05:27:23;57.47;;;24.83;;
52730;SDS011;38624;53.242;6.974;2024-02-28T05:29:49;55.07;;;25.60;;
52730;SDS011;38624;53.242;6.974;2024-02-28T05:32:16;55.80;;;26.27;;
52730;SDS011;38624;53.242;6.974;2024-02-28T05:34:42;49.57;;;24.23;;
52730;SDS011;38624;53.242;6.974;2024-02-28T05:37:08;56.27;;;24.63;;
52730;SDS011;38624;53.242;6.974;2024-02-28T05:39:34;55.22;;;24.65;;
52730;SDS011;38624;53.242;6.974;2024-02-28T05:42:00;59.97;;;25.65;;
52730;SDS011;38624;53.242;6.974;2024-02-28T05:44:26;59.43;;;27.17;;
52730;SDS011;38624;53.242;6.974;2024-02-28T05:46:52;58.00;;;25.13;;
52730;SDS011;38624;53.242;6.974;2024-02-28T05:49:18;59.50;;;26.27;;
52730;SDS011;38624;53.242;6.974;2024-02-28T05:51:44;59.20;;;26.57;;
52730;SDS011;38624;53.242;6.974;2024-02-28T05:56:38;55.83;;;24.50;;
52730;SDS011;38624;53.242;6.974;2024-02-28T05:59:04;56.53;;;25.43;;
52730;SDS011;38624;53.242;6.974;2024-02-28T06:01:30;56.33;;;26.40;;
52730;SDS011;38624;53.242;6.974;2024-02-28T06:03:56;55.50;;;25.63;;
52730;SDS011;38624;53.242;6.974;2024-02-28T06:06:22;55.67;;;24.07;;
52730;SDS011;38624;53.242;6.974;2024-02-28T06:08:48;56.17;;;25.13;;
52730;SDS011;38624;53.242;6.974;2024-02-28T06:11:14;58.37;;;23.87;;
52730;SDS011;38624;53.242;6.974;2024-02-28T06:13:40;53.00;;;24.80;;
52730;SDS011;38624;53.242;6.974;2024-02-28T06:16:06;52.10;;;24.92;;
52730;SDS011;38624;53.242;6.974;2024-02-28T06:18:32;54.47;;;24.03;;
52730;SDS011;38624;53.242;6.974;2024-02-28T06:20:59;51.90;;;24.30;;
52730;SDS011;38624;53.242;6.974;2024-02-28T06:23:28;53.70;;;23.70;;
52730;SDS011;38624;53.242;6.974;2024-02-28T06:25:54;50.50;;;23.63;;
52730;SDS011;38624;53.242;6.974;2024-02-28T06:28:20;54.88;;;24.35;;
52730;SDS011;38624;53.242;6.974;2024-02-28T06:30:46;49.03;;;24.07;;
52730;SDS011;38624;53.242;6.974;2024-02-28T06:33:12;53.37;;;24.70;;
52730;SDS011;38624;53.242;6.974;2024-02-28T06:35:39;51.15;;;23.17;;
52730;SDS011;38624;53.242;6.974;2024-02-28T06:38:06;49.47;;;23.70;;
52730;SDS011;38624;53.242;6.974;2024-02-28T06:40:32;50.35;;;23.23;;
52730;SDS011;38624;53.242;6.974;2024-02-28T06:42:59;47.58;;;23.77;;
52730;SDS011;38624;53.242;6.974;2024-02-28T06:45:25;53.22;;;23.55;;
52730;SDS011;38624;53.242;6.974;2024-02-28T06:47:51;48.33;;;23.23;;
52730;SDS011;38624;53.242;6.974;2024-02-28T06:50:17;49.60;;;23.20;;
52730;SDS011;38624;53.242;6.974;2024-02-28T06:52:43;51.70;;;23.20;;
52730;SDS011;38624;53.242;6.974;2024-02-28T06:55:09;49.47;;;23.52;;
52730;SDS011;38624;53.242;6.974;2024-02-28T06:57:36;48.37;;;23.23;;
52730;SDS011;38624;53.242;6.974;2024-02-28T07:00:04;47.57;;;23.23;;
52730;SDS011;38624;53.242;6.974;2024-02-28T07:02:32;45.27;;;21.93;;
52730;SDS011;38624;53.242;6.974;2024-02-28T07:04:58;51.90;;;24.20;;
52730;SDS011;38624;53.242;6.974;2024-02-28T07:07:24;47.53;;;23.33;;
52730;SDS011;38624;53.242;6.974;2024-02-28T07:09:50;47.73;;;23.97;;
52730;SDS011;38624;53.242;6.974;2024-02-28T07:12:16;51.67;;;23.80;;
52730;SDS011;38624;53.242;6.974;2024-02-28T07:14:42;49.00;;;22.63;;
52730;SDS011;38624;53.242;6.974;2024-02-28T07:17:08;46.90;;;23.00;;
52730;SDS011;38624;53.242;6.974;2024-02-28T07:19:35;50.13;;;24.20;;
52730;SDS011;38624;53.242;6.974;2024-02-28T07:22:01;50.43;;;23.47;;
52730;SDS011;38624;53.242;6.974;2024-02-28T07:24:29;51.00;;;23.97;;
52730;SDS011;38624;53.242;6.974;2024-02-28T07:26:55;49.00;;;23.17;;
52730;SDS011;38624;53.242;6.974;2024-02-28T07:31:49;50.07;;;22.40;;
52730;SDS011;38624;53.242;6.974;2024-02-28T07:34:15;51.67;;;23.03;;
52730;SDS011;38624;53.242;6.974;2024-02-28T07:36:41;52.20;;;23.10;;
52730;SDS011;38624;53.242;6.974;2024-02-28T07:39:07;47.03;;;23.33;;
52730;SDS011;38624;53.242;6.974;2024-02-28T07:41:38;51.23;;;22.87;;
52730;SDS011;38624;53.242;6.974;2024-02-28T07:44:04;54.58;;;24.45;;
52730;SDS011;38624;53.242;6.974;2024-02-28T07:46:32;50.20;;;24.13;;
52730;SDS011;38624;53.242;6.974;2024-02-28T07:48:58;57.13;;;25.13;;
52730;SDS011;38624;53.242;6.974;2024-02-28T07:51:25;57.47;;;26.10;;
52730;SDS011;38624;53.242;6.974;2024-02-28T07:53:52;51.75;;;24.73;;
52730;SDS011;38624;53.242;6.974;2024-02-28T07:56:18;56.87;;;26.60;;
52730;SDS011;38624;53.242;6.974;2024-02-28T07:58:44;56.65;;;25.85;;
52730;SDS011;38624;53.242;6.974;2024-02-28T08:01:11;53.28;;;26.08;;
52730;SDS011;38624;53.242;6.974;2024-02-28T08:03:37;55.75;;;26.48;;
52730;SDS011;38624;53.242;6.974;2024-02-28T08:06:03;62.43;;;27.70;;
52730;SDS011;38624;53.242;6.974;2024-02-28T08:08:30;61.95;;;27.63;;
52730;SDS011;38624;53.242;6.974;2024-02-28T08:10:56;58.70;;;28.43;;
52730;SDS011;38624;53.242;6.974;2024-02-28T08:13:22;62.50;;;27.40;;
52730;SDS011;38624;53.242;6.974;2024-02-28T08:15:48;60.73;;;27.90;;
52730;SDS011;38624;53.242;6.974;2024-02-28T08:18:14;67.77;;;28.77;;
52730;SDS011;38624;53.242;6.974;2024-02-28T08:20:40;62.43;;;28.67;;
52730;SDS011;38624;53.242;6.974;2024-02-28T08:23:07;58.10;;;27.23;;
52730;SDS011;38624;53.242;6.974;2024-02-28T08:25:33;57.05;;;27.55;;
52730;SDS011;38624;53.242;6.974;2024-02-28T08:28:00;57.20;;;28.47;;
52730;SDS011;38624;53.242;6.974;2024-02-28T08:30:26;58.37;;;28.07;;
52730;SDS011;38624;53.242;6.974;2024-02-28T08:32:52;57.00;;;27.93;;
52730;SDS011;38624;53.242;6.974;2024-02-28T08:35:18;61.87;;;28.20;;
52730;SDS011;38624;53.242;6.974;2024-02-28T08:37:44;60.73;;;29.40;;
52730;SDS011;38624;53.242;6.974;2024-02-28T08:40:10;56.67;;;28.30;;
52730;SDS011;38624;53.242;6.974;2024-02-28T08:42:37;52.70;;;27.63;;
52730;SDS011;38624;53.242;6.974;2024-02-28T08:45:06;56.03;;;27.60;;
52730;SDS011;38624;53.242;6.974;2024-02-28T08:47:33;59.53;;;28.42;;
52730;SDS011;38624;53.242;6.974;2024-02-28T08:49:59;49.53;;;26.70;;
52730;SDS011;38624;53.242;6.974;2024-02-28T08:52:25;52.00;;;26.93;;
52730;SDS011;38624;53.242;6.974;2024-02-28T08:54:51;53.45;;;26.83;;
52730;SDS011;38624;53.242;6.974;2024-02-28T08:57:18;52.15;;;25.55;;
52730;SDS011;38624;53.242;6.974;2024-02-28T08:59:47;53.67;;;26.50;;
52730;SDS011;38624;53.242;6.974;2024-02-28T09:02:13;51.53;;;25.27;;
52730;SDS011;38624;53.242;6.974;2024-02-28T09:04:39;50.93;;;26.17;;
52730;SDS011;38624;53.242;6.974;2024-02-28T09:07:06;55.58;;;26.20;;
52730;SDS011;38624;53.242;6.974;2024-02-28T09:09:32;50.60;;;25.77;;
52730;SDS011;38624;53.242;6.974;2024-02-28T09:12:03;51.37;;;26.30;;
52730;SDS011;38624;53.242;6.974;2024-02-28T09:14:29;46.28;;;25.10;;
52730;SDS011;38624;53.242;6.974;2024-02-28T09:16:55;51.90;;;26.98;;
52730;SDS011;38624;53.242;6.974;2024-02-28T09:19:28;47.93;;;24.40;;
52730;SDS011;38624;53.242;6.974;2024-02-28T09:21:54;43.67;;;24.87;;
52730;SDS011;38624;53.242;6.974;2024-02-28T09:24:20;51.20;;;26.87;;
52730;SDS011;38624;53.242;6.974;2024-02-28T09:26:46;42.77;;;22.47;;
52730;SDS011;38624;53.242;6.974;2024-02-28T09:29:12;47.25;;;25.10;;
52730;SDS011;38624;53.242;6.974;2024-02-28T09:31:38;48.08;;;24.98;;
52730;SDS011;38624;53.242;6.974;2024-02-28T09:34:04;46.92;;;24.70;;
52730;SDS011;38624;53.242;6.974;2024-02-28T09:36:53;37.10;;;21.67;;
52730;SDS011;38624;53.242;6.974;2024-02-28T09:39:19;48.83;;;25.38;;
52730;SDS011;38624;53.242;6.974;2024-02-28T09:41:49;44.53;;;24.33;;
52730;SDS011;38624;53.242;6.974;2024-02-28T09:44:16;47.17;;;26.10;;
52730;SDS011;38624;53.242;6.974;2024-02-28T09:46:42;42.72;;;23.75;;
52730;SDS011;38624;53.242;6.974;2024-02-28T09:49:09;43.13;;;23.92;;
52730;SDS011;38624;53.242;6.974;2024-02-28T09:51:36;47.00;;;25.23;;
52730;SDS011;38624;53.242;6.974;2024-02-28T09:54:03;48.15;;;25.50;;
52730;SDS011;38624;53.242;6.974;2024-02-28T09:56:30;46.13;;;24.52;;
52730;SDS011;38624;53.242;6.974;2024-02-28T09:58:56;39.70;;;21.60;;
52730;SDS011;38624;53.242;6.974;2024-02-28T10:01:23;49.13;;;25.27;;
52730;SDS011;38624;53.242;6.974;2024-02-28T10:03:50;41.03;;;23.63;;
52730;SDS011;38624;53.242;6.974;2024-02-28T10:06:18;39.08;;;22.67;;
52730;SDS011;38624;53.242;6.974;2024-02-28T10:08:44;41.05;;;22.77;;
52730;SDS011;38624;53.242;6.974;2024-02-28T10:11:22;44.47;;;24.55;;
52730;SDS011;38624;53.242;6.974;2024-02-28T10:13:49;35.97;;;20.27;;
52730;SDS011;38624;53.242;6.974;2024-02-28T10:16:15;41.08;;;22.73;;
52730;SDS011;38624;53.242;6.974;2024-02-28T10:18:45;42.20;;;24.05;;
52730;SDS011;38624;53.242;6.974;2024-02-28T10:21:11;46.95;;;24.27;;
52730;SDS011;38624;53.242;6.974;2024-02-28T10:23:41;45.67;;;23.90;;
52730;SDS011;38624;53.242;6.974;2024-02-28T10:28:35;39.40;;;22.20;;
52730;SDS011;38624;53.242;6.974;2024-02-28T10:31:01;39.72;;;22.20;;
52730;SDS011;38624;53.242;6.974;2024-02-28T10:33:28;42.97;;;25.00;;
52730;SDS011;38624;53.242;6.974;2024-02-28T10:35:54;43.30;;;22.80;;
52730;SDS011;38624;53.242;6.974;2024-02-28T10:38:20;41.22;;;22.25;;
52730;SDS011;38624;53.242;6.974;2024-02-28T10:40:47;42.15;;;24.35;;
52730;SDS011;38624;53.242;6.974;2024-02-28T10:43:13;44.42;;;24.33;;
52730;SDS011;38624;53.242;6.974;2024-02-28T10:45:45;41.90;;;23.25;;
52730;SDS011;38624;53.242;6.974;2024-02-28T10:48:13;43.73;;;24.30;;
52730;SDS011;38624;53.242;6.974;2024-02-28T10:50:43;44.40;;;25.33;;
52730;SDS011;38624;53.242;6.974;2024-02-28T10:53:12;45.50;;;24.58;;
52730;SDS011;38624;53.242;6.974;2024-02-28T10:55:42;44.40;;;24.58;;
52730;SDS011;38624;53.242;6.974;2024-02-28T10:58:11;43.15;;;23.75;;
52730;SDS011;38624;53.242;6.974;2024-02-28T11:00:39;39.00;;;22.73;;
52730;SDS011;38624;53.242;6.974;2024-02-28T11:03:06;39.28;;;21.70;;
52730;SDS011;38624;53.242;6.974;2024-02-28T11:05:36;38.05;;;22.10;;
52730;SDS011;38624;53.242;6.974;2024-02-28T11:08:19;38.25;;;21.02;;
52730;SDS011;38624;53.242;6.974;2024-02-28T11:10:47;35.25;;;21.13;;
52730;SDS011;38624;53.242;6.974;2024-02-28T11:13:27;36.13;;;20.92;;
52730;SDS011;38624;53.242;6.974;2024-02-28T11:15:53;36.63;;;21.17;;
52730;SDS011;38624;53.242;6.974;2024-02-28T11:18:20;32.42;;;20.08;;
52730;SDS011;38624;53.242;6.974;2024-02-28T11:20:47;35.95;;;20.88;;
52730;SDS011;38624;53.242;6.974;2024-02-28T11:23:14;35.30;;;21.70;;
52730;SDS011;38624;53.242;6.974;2024-02-28T11:25:41;34.03;;;19.98;;
52730;SDS011;38624;53.242;6.974;2024-02-28T11:28:07;34.08;;;20.83;;
52730;SDS011;38624;53.242;6.974;2024-02-28T11:30:34;34.58;;;20.52;;
52730;SDS011;38624;53.242;6.974;2024-02-28T11:33:00;34.53;;;21.27;;
52730;SDS011;38624;53.242;6.974;2024-02-28T11:35:26;35.88;;;21.05;;
52730;SDS011;38624;53.242;6.974;2024-02-28T11:37:56;36.72;;;22.63;;
52730;SDS011;38624;53.242;6.974;2024-02-28T11:40:23;36.53;;;22.17;;
52730;SDS011;38624;53.242;6.974;2024-02-28T11:42:50;36.42;;;22.17;;
52730;SDS011;38624;53.242;6.974;2024-02-28T11:45:16;36.38;;;21.58;;
52730;SDS011;38624;53.242;6.974;2024-02-28T11:47:42;35.28;;;21.40;;
52730;SDS011;38624;53.242;6.974;2024-02-28T11:50:08;33.67;;;20.60;;
52730;SDS011;38624;53.242;6.974;2024-02-28T11:52:34;35.50;;;21.33;;
52730;SDS011;38624;53.242;6.974;2024-02-28T11:55:01;36.17;;;22.30;;
52730;SDS011;38624;53.242;6.974;2024-02-28T11:57:27;38.38;;;22.80;;
52730;SDS011;38624;53.242;6.974;2024-02-28T11:59:56;39.08;;;23.52;;
52730;SDS011;38624;53.242;6.974;2024-02-28T12:02:22;39.70;;;24.10;;
52730;SDS011;38624;53.242;6.974;2024-02-28T12:04:52;40.50;;;23.30;;
52730;SDS011;38624;53.242;6.974;2024-02-28T12:07:19;38.80;;;23.38;;
52730;SDS011;38624;53.242;6.974;2024-02-28T12:09:46;39.75;;;24.45;;
52730;SDS011;38624;53.242;6.974;2024-02-28T12:12:14;40.10;;;24.00;;
52730;SDS011;38624;53.242;6.974;2024-02-28T12:14:40;39.00;;;23.48;;
52730;SDS011;38624;53.242;6.974;2024-02-28T12:17:10;37.30;;;23.13;;
52730;SDS011;38624;53.242;6.974;2024-02-28T12:19:36;39.65;;;23.00;;
52730;SDS011;38624;53.242;6.974;2024-02-28T12:22:02;36.88;;;22.95;;
52730;SDS011;38624;53.242;6.974;2024-02-28T12:24:29;40.95;;;23.70;;
52730;SDS011;38624;53.242;6.974;2024-02-28T12:26:55;39.47;;;24.40;;
52730;SDS011;38624;53.242;6.974;2024-02-28T12:29:21;35.80;;;23.70;;
52730;SDS011;38624;53.242;6.974;2024-02-28T12:31:47;38.97;;;23.83;;
52730;SDS011;38624;53.242;6.974;2024-02-28T12:34:13;39.47;;;25.00;;
52730;SDS011;38624;53.242;6.974;2024-02-28T12:36:42;39.88;;;24.10;;
52730;SDS011;38624;53.242;6.974;2024-02-28T12:39:09;36.05;;;22.42;;
52730;SDS011;38624;53.242;6.974;2024-02-28T12:41:38;38.03;;;24.27;;
52730;SDS011;38624;53.242;6.974;2024-02-28T12:44:07;37.72;;;23.95;;
52730;SDS011;38624;53.242;6.974;2024-02-28T12:46:34;38.42;;;23.80;;
52730;SDS011;38624;53.242;6.974;2024-02-28T12:49:00;35.75;;;23.52;;
52730;SDS011;38624;53.242;6.974;2024-02-28T12:51:37;37.72;;;23.48;;
52730;SDS011;38624;53.242;6.974;2024-02-28T12:54:03;38.42;;;23.45;;
52730;SDS011;38624;53.242;6.974;2024-02-28T12:56:29;35.75;;;22.77;;
52730;SDS011;38624;53.242;6.974;2024-02-28T12:58:55;34.33;;;21.77;;
52730;SDS011;38624;53.242;6.974;2024-02-28T13:01:21;36.13;;;23.08;;
52730;SDS011;38624;53.242;6.974;2024-02-28T13:03:47;36.20;;;23.33;;
52730;SDS011;38624;53.242;6.974;2024-02-28T13:06:14;37.53;;;23.67;;
52730;SDS011;38624;53.242;6.974;2024-02-28T13:08:46;33.65;;;21.55;;
52730;SDS011;38624;53.242;6.974;2024-02-28T13:11:20;32.92;;;21.45;;
52730;SDS011;38624;53.242;6.974;2024-02-28T13:13:47;34.80;;;22.38;;
52730;SDS011;38624;53.242;6.974;2024-02-28T13:16:14;36.70;;;22.65;;
52730;SDS011;38624;53.242;6.974;2024-02-28T13:18:40;34.92;;;22.13;;
52730;SDS011;38624;53.242;6.974;2024-02-28T13:21:06;37.73;;;23.47;;
52730;SDS011;38624;53.242;6.974;2024-02-28T13:23:32;39.23;;;23.50;;
52730;SDS011;38624;53.242;6.974;2024-02-28T13:25:59;35.43;;;23.07;;
52730;SDS011;38624;53.242;6.974;2024-02-28T13:28:26;35.80;;;22.73;;
52730;SDS011;38624;53.242;6.974;2024-02-28T13:30:57;36.55;;;23.02;;
52730;SDS011;38624;53.242;6.974;2024-02-28T13:33:23;36.53;;;22.90;;
52730;SDS011;38624;53.242;6.974;2024-02-28T13:35:49;37.63;;;23.20;;
52730;SDS011;38624;53.242;6.974;2024-02-28T13:38:15;33.70;;;21.02;;
52730;SDS011;38624;53.242;6.974;2024-02-28T13:40:41;35.78;;;21.55;;
52730;SDS011;38624;53.242;6.974;2024-02-28T13:43:10;33.47;;;21.27;;
52730;SDS011;38624;53.242;6.974;2024-02-28T13:45:37;33.65;;;22.05;;
52730;SDS011;38624;53.242;6.974;2024-02-28T13:48:14;31.65;;;20.77;;
52730;SDS011;38624;53.242;6.974;2024-02-28T13:50:41;36.42;;;22.70;;
52730;SDS011;38624;53.242;6.974;2024-02-28T13:53:07;33.97;;;22.27;;
52730;SDS011;38624;53.242;6.974;2024-02-28T13:55:33;35.50;;;23.17;;
52730;SDS011;38624;53.242;6.974;2024-02-28T13:57:59;33.43;;;22.30;;
52730;SDS011;38624;53.242;6.974;2024-02-28T14:00:25;35.07;;;22.97;;
52730;SDS011;38624;53.242;6.974;2024-02-28T14:02:51;38.23;;;22.90;;
52730;SDS011;38624;53.242;6.974;2024-02-28T14:05:17;39.20;;;23.70;;
52730;SDS011;38624;53.242;6.974;2024-02-28T14:07:43;36.57;;;24.33;;
52730;SDS011;38624;53.242;6.974;2024-02-28T14:10:09;36.67;;;24.10;;
52730;SDS011;38624;53.242;6.974;2024-02-28T14:12:36;37.95;;;24.67;;
52730;SDS011;38624;53.242;6.974;2024-02-28T14:15:03;39.25;;;24.92;;
52730;SDS011;38624;53.242;6.974;2024-02-28T14:17:29;34.88;;;23.73;;
52730;SDS011;38624;53.242;6.974;2024-02-28T14:19:55;33.20;;;23.55;;
52730;SDS011;38624;53.242;6.974;2024-02-28T14:22:21;32.15;;;22.13;;
52730;SDS011;38624;53.242;6.974;2024-02-28T14:24:47;31.73;;;22.47;;
52730;SDS011;38624;53.242;6.974;2024-02-28T14:27:14;32.45;;;23.52;;
52730;SDS011;38624;53.242;6.974;2024-02-28T14:29:40;37.88;;;22.00;;